Startpagina
METAR-TAF:

METAR-TAF

Vliegvelden :

Vliegbasis Bevekom

Bevekom, België

breedte: 50-45N, lengte: 004-46E, hoogte: 105 m

Actueel weer

Dit bericht is 23 minuten geleden gemaakt, om 05:25 UTC
Wind 2 kt uit variabele richting
Temperatuur -2°C
Vochtigheid 93%
Druk 1026 hPa
Zicht: 9000 m

METAR: EBBE 070525Z AUTO VRB02KT 9000 NCD M02/M03 Q1026 BLU

Tijdstip: 06:48 (05:48 UTC)

Verwachting

Dit bericht is 14 uur en het 7 minuten geleden gemaakt, om 15:41 UTC
Verwachting geldig van 05 om 19 UTC tot 06 om 07 UTC
Wind 5 kt uit het oostnoordoosten
Zicht 10 km of meer
Weinig wolken op 30000 ft

TAF: EBBE 051541Z 0519/0607 06005KT 9999 FEW300

Waarnemingen en weersverwachtingen van meer dan 4000 vliegvelden (METAR en TAF).

De beschikbare stations zijn de gele en rode punten op de kaart.

Ga met uw muis naar het station om de naam te zien.

Klik dan om waarnemingen en weersverwachtingen te zien.

kaart wijzigen: klik op de groene knoppen met een zwart kruis om in te zoomen, op de groene knop met een streepje om uit te zoomen of op de groene pijlen voor aangrenzende kaarten.


METAR-TAF: